Terminal Aerodrome Forecast
Issued by NWS Lake Charles, LA

Home | Current Version | Previous Version | Text Only | Print | Product List | Glossary On
Versions: 1 2 3 4 5 6 7 8 9 10 11 12 13
764
FTUS44 KLCH 202320
TAFLCH
TAF
KLCH 202320Z 2100/2124 17003KT P6SM SCT150 BKN250
     FM211400 12005KT P6SM BKN200
     FM211800 12006KT P6SM BKN050=

USA.gov is the U.S. government's official web portal to all federal, state and local government web resources and services.